sensor_id;sensor_type;location;lat;lon;timestamp;pressure;altitude;pressure_sealevel;temperature;humidity
45864;BME280;31579;52.354;16.974;2023-02-23T00:00:40;-4.3;;;-146.1;100.0
45864;BME280;31579;52.354;16.974;2023-02-23T00:01:44;-2.4;;;-146.1;100.0
45864;BME280;31579;52.354;16.974;2023-02-23T00:02:47;0.6;;;-146.1;100.0
45864;BME280;31579;52.354;16.974;2023-02-23T00:03:52;3.3;;;-146.1;100.0
45864;BME280;31579;52.354;16.974;2023-02-23T00:04:53;6.0;;;-146.1;100.0
45864;BME280;31579;52.354;16.974;2023-02-23T00:05:57;7.5;;;-146.1;100.0
45864;BME280;31579;52.354;16.974;2023-02-23T00:07:09;48.9;;;-146.1;100.0
45864;BME280;31579;52.354;16.974;2023-02-23T00:08:12;47.4;;;-146.1;100.0
45864;BME280;31579;52.354;16.974;2023-02-23T00:09:16;22.1;;;-146.1;100.0
45864;BME280;31579;52.354;16.974;2023-02-23T00:10:19;11.0;;;-146.1;100.0
45864;BME280;31579;52.354;16.974;2023-02-23T00:11:21;6.2;;;-146.1;100.0
45864;BME280;31579;52.354;16.974;2023-02-23T00:12:24;5.1;;;-146.1;100.0
45864;BME280;31579;52.354;16.974;2023-02-23T00:13:27;6.1;;;-146.1;100.0
45864;BME280;31579;52.354;16.974;2023-02-23T00:14:31;8.0;;;-146.1;100.0
45864;BME280;31579;52.354;16.974;2023-02-23T00:15:34;10.6;;;-146.1;100.0
45864;BME280;31579;52.354;16.974;2023-02-23T00:16:37;14.0;;;-146.1;100.0
45864;BME280;31579;52.354;16.974;2023-02-23T00:17:40;18.2;;;-146.1;100.0
45864;BME280;31579;52.354;16.974;2023-02-23T00:18:49;21.6;;;-146.1;100.0
45864;BME280;31579;52.354;16.974;2023-02-23T00:19:46;24.9;;;-146.1;100.0
45864;BME280;31579;52.354;16.974;2023-02-23T00:21:53;31.7;;;-146.1;100.0
45864;BME280;31579;52.354;16.974;2023-02-23T00:22:11;70.7;;;-146.1;100.0
45864;BME280;31579;52.354;16.974;2023-02-23T00:23:13;55.3;;;-146.1;100.0
45864;BME280;31579;52.354;16.974;2023-02-23T00:24:17;40.3;;;-146.1;100.0
45864;BME280;31579;52.354;16.974;2023-02-23T00:25:20;34.2;;;-146.1;100.0
45864;BME280;31579;52.354;16.974;2023-02-23T00:26:23;32.4;;;-146.1;100.0
45864;BME280;31579;52.354;16.974;2023-02-23T00:27:25;32.8;;;-146.1;100.0
45864;BME280;31579;52.354;16.974;2023-02-23T00:28:28;34.2;;;-146.1;100.0
45864;BME280;31579;52.354;16.974;2023-02-23T00:29:33;35.7;;;-146.1;100.0
45864;BME280;31579;52.354;16.974;2023-02-23T00:30:35;38.9;;;-146.1;100.0
45864;BME280;31579;52.354;16.974;2023-02-23T00:31:38;41.2;;;-146.1;100.0
45864;BME280;31579;52.354;16.974;2023-02-23T00:32:41;44.4;;;-146.1;100.0
45864;BME280;31579;52.354;16.974;2023-02-23T00:33:44;47.5;;;-146.1;100.0
45864;BME280;31579;52.354;16.974;2023-02-23T00:34:47;50.7;;;-146.1;100.0
45864;BME280;31579;52.354;16.974;2023-02-23T00:35:50;53.4;;;-146.1;100.0
45864;BME280;31579;52.354;16.974;2023-02-23T00:36:54;55.7;;;-146.1;100.0
45864;BME280;31579;52.354;16.974;2023-02-23T00:37:58;59.0;;;-146.1;100.0
45864;BME280;31579;52.354;16.974;2023-02-23T00:39:03;53.5;;;-146.1;100.0
45864;BME280;31579;52.354;16.974;2023-02-23T00:40:05;73.5;;;-146.1;100.0
45864;BME280;31579;52.354;16.974;2023-02-23T00:41:09;75.7;;;-146.1;100.0
45864;BME280;31579;52.354;16.974;2023-02-23T00:42:11;58.8;;;-146.1;100.0
45864;BME280;31579;52.354;16.974;2023-02-23T00:43:12;68.0;;;-146.1;100.0
45864;BME280;31579;52.354;16.974;2023-02-23T00:44:15;72.3;;;-146.1;100.0
45864;BME280;31579;52.354;16.974;2023-02-23T00:45:19;76.5;;;-146.1;100.0
45864;BME280;31579;52.354;16.974;2023-02-23T00:46:22;79.9;;;-146.1;100.0
45864;BME280;31579;52.354;16.974;2023-02-23T00:47:24;83.5;;;-146.1;100.0
45864;BME280;31579;52.354;16.974;2023-02-23T00:48:27;86.5;;;-146.1;100.0
45864;BME280;31579;52.354;16.974;2023-02-23T00:49:31;88.8;;;-146.1;100.0
45864;BME280;31579;52.354;16.974;2023-02-23T00:50:34;91.8;;;-146.1;100.0
45864;BME280;31579;52.354;16.974;2023-02-23T00:51:37;94.3;;;-146.1;100.0
45864;BME280;31579;52.354;16.974;2023-02-23T00:52:40;96.1;;;-146.1;100.0
45864;BME280;31579;52.354;16.974;2023-02-23T00:53:43;98.7;;;-146.1;100.0
45864;BME280;31579;52.354;16.974;2023-02-23T00:54:46;100.1;;;-146.1;100.0
45864;BME280;31579;52.354;16.974;2023-02-23T00:55:48;102.3;;;-146.1;100.0
45864;BME280;31579;52.354;16.974;2023-02-23T00:56:51;103.9;;;-146.1;100.0
45864;BME280;31579;52.354;16.974;2023-02-23T00:57:54;106.3;;;-146.1;100.0
45864;BME280;31579;52.354;16.974;2023-02-23T00:58:58;107.9;;;-146.1;100.0
45864;BME280;31579;52.354;16.974;2023-02-23T01:00:10;148.5;;;-146.1;100.0
45864;BME280;31579;52.354;16.974;2023-02-23T01:01:12;135.0;;;-146.1;100.0
45864;BME280;31579;52.354;16.974;2023-02-23T01:02:15;112.5;;;-146.1;100.0
45864;BME280;31579;52.354;16.974;2023-02-23T01:03:18;102.0;;;-146.1;100.0
45864;BME280;31579;52.354;16.974;2023-02-23T01:04:21;97.4;;;-146.1;100.0
45864;BME280;31579;52.354;16.974;2023-02-23T01:05:24;94.9;;;-146.1;100.0
45864;BME280;31579;52.354;16.974;2023-02-23T01:06:27;95.2;;;-146.1;100.0
45864;BME280;31579;52.354;16.974;2023-02-23T01:07:31;95.2;;;-146.1;100.0
45864;BME280;31579;52.354;16.974;2023-02-23T01:08:35;97.1;;;-146.1;100.0
45864;BME280;31579;52.354;16.974;2023-02-23T01:09:38;98.2;;;-146.1;100.0
45864;BME280;31579;52.354;16.974;2023-02-23T01:10:42;100.2;;;-146.1;100.0
45864;BME280;31579;52.354;16.974;2023-02-23T01:11:45;103.6;;;-146.1;100.0
45864;BME280;31579;52.354;16.974;2023-02-23T01:12:48;105.2;;;-146.1;100.0
45864;BME280;31579;52.354;16.974;2023-02-23T01:13:51;107.3;;;-146.1;100.0
45864;BME280;31579;52.354;16.974;2023-02-23T01:14:54;109.7;;;-146.1;100.0
45864;BME280;31579;52.354;16.974;2023-02-23T01:15:58;110.7;;;-146.1;100.0
45864;BME280;31579;52.354;16.974;2023-02-23T01:17:02;104.4;;;-146.1;100.0
45864;BME280;31579;52.354;16.974;2023-02-23T01:18:04;131.2;;;-146.1;100.0
45864;BME280;31579;52.354;16.974;2023-02-23T01:19:06;117.1;;;-146.1;100.0
45864;BME280;31579;52.354;16.974;2023-02-23T01:20:23;148.7;;;-146.1;100.0
45864;BME280;31579;52.354;16.974;2023-02-23T01:21:28;139.1;;;-146.1;100.0
45864;BME280;31579;52.354;16.974;2023-02-23T01:22:30;124.9;;;-146.1;100.0
45864;BME280;31579;52.354;16.974;2023-02-23T01:23:32;119.4;;;-146.1;100.0
45864;BME280;31579;52.354;16.974;2023-02-23T01:24:36;116.8;;;-146.1;100.0
45864;BME280;31579;52.354;16.974;2023-02-23T01:25:39;116.3;;;-146.1;100.0
45864;BME280;31579;52.354;16.974;2023-02-23T01:26:42;116.9;;;-146.1;100.0
45864;BME280;31579;52.354;16.974;2023-02-23T01:27:45;117.4;;;-146.1;100.0
45864;BME280;31579;52.354;16.974;2023-02-23T01:28:49;119.6;;;-146.1;100.0
45864;BME280;31579;52.354;16.974;2023-02-23T01:29:52;121.8;;;-146.1;100.0
45864;BME280;31579;52.354;16.974;2023-02-23T01:30:54;123.9;;;-146.1;100.0
45864;BME280;31579;52.354;16.974;2023-02-23T01:31:57;125.8;;;-146.1;100.0
45864;BME280;31579;52.354;16.974;2023-02-23T01:33:01;118.5;;;-146.1;100.0
45864;BME280;31579;52.354;16.974;2023-02-23T01:34:06;136.5;;;-146.1;100.0
45864;BME280;31579;52.354;16.974;2023-02-23T01:35:09;130.9;;;-146.1;100.0
45864;BME280;31579;52.354;16.974;2023-02-23T01:36:12;129.3;;;-146.1;100.0
45864;BME280;31579;52.354;16.974;2023-02-23T01:37:14;129.3;;;-146.1;100.0
45864;BME280;31579;52.354;16.974;2023-02-23T01:38:17;130.4;;;-146.1;100.0
45864;BME280;31579;52.354;16.974;2023-02-23T01:39:20;132.1;;;-146.1;100.0
45864;BME280;31579;52.354;16.974;2023-02-23T01:40:24;132.7;;;-146.1;100.0
45864;BME280;31579;52.354;16.974;2023-02-23T01:41:27;135.1;;;-146.1;100.0
45864;BME280;31579;52.354;16.974;2023-02-23T01:42:29;136.8;;;-146.1;100.0
45864;BME280;31579;52.354;16.974;2023-02-23T01:43:33;139.6;;;-146.1;100.0
45864;BME280;31579;52.354;16.974;2023-02-23T01:45:30;149.3;;;-146.1;100.0
45864;BME280;31579;52.354;16.974;2023-02-23T01:46:32;151.6;;;-146.1;100.0
45864;BME280;31579;52.354;16.974;2023-02-23T01:47:33;146.2;;;-146.1;100.0
45864;BME280;31579;52.354;16.974;2023-02-23T01:48:37;145.7;;;-146.1;100.0
45864;BME280;31579;52.354;16.974;2023-02-23T01:49:39;145.9;;;-146.1;100.0
45864;BME280;31579;52.354;16.974;2023-02-23T01:50:52;180.1;;;-146.1;100.0
45864;BME280;31579;52.354;16.974;2023-02-23T01:51:57;163.6;;;-146.1;100.0
45864;BME280;31579;52.354;16.974;2023-02-23T01:52:55;151.0;;;-146.1;100.0
45864;BME280;31579;52.354;16.974;2023-02-23T01:54:00;145.5;;;-146.1;100.0
45864;BME280;31579;52.354;16.974;2023-02-23T01:55:01;151.6;;;-146.1;100.0
45864;BME280;31579;52.354;16.974;2023-02-23T01:56:06;136.0;;;-146.1;100.0
45864;BME280;31579;52.354;16.974;2023-02-23T01:57:09;145.9;;;-146.1;100.0
45864;BME280;31579;52.354;16.974;2023-02-23T01:58:13;151.4;;;-146.1;100.0
45864;BME280;31579;52.354;16.974;2023-02-23T01:59:14;157.0;;;-146.1;100.0
45864;BME280;31579;52.354;16.974;2023-02-23T02:00:18;161.7;;;-146.1;100.0
45864;BME280;31579;52.354;16.974;2023-02-23T02:01:20;165.1;;;-146.1;100.0
45864;BME280;31579;52.354;16.974;2023-02-23T02:02:25;167.8;;;-146.1;100.0
45864;BME280;31579;52.354;16.974;2023-02-23T02:04:31;173.8;;;-146.1;100.0
45864;BME280;31579;52.354;16.974;2023-02-23T02:05:34;176.0;;;-146.1;100.0
45864;BME280;31579;52.354;16.974;2023-02-23T02:06:36;178.2;;;-146.1;100.0
45864;BME280;31579;52.354;16.974;2023-02-23T02:07:41;180.3;;;-146.1;100.0
45864;BME280;31579;52.354;16.974;2023-02-23T02:08:44;182.2;;;-146.1;100.0
45864;BME280;31579;52.354;16.974;2023-02-23T02:09:46;183.7;;;-146.1;100.0
45864;BME280;31579;52.354;16.974;2023-02-23T02:10:47;195.1;;;-146.1;100.0
45864;BME280;31579;52.354;16.974;2023-02-23T02:11:50;178.7;;;-146.1;100.0
45864;BME280;31579;52.354;16.974;2023-02-23T02:12:54;190.4;;;-146.1;100.0
45864;BME280;31579;52.354;16.974;2023-02-23T02:13:58;196.2;;;-146.1;100.0
45864;BME280;31579;52.354;16.974;2023-02-23T02:14:59;200.7;;;-146.1;100.0
45864;BME280;31579;52.354;16.974;2023-02-23T02:42:34;218.1;;;-146.1;100.0
45864;BME280;31579;52.354;16.974;2023-02-23T02:46:43;223.6;;;-146.1;100.0
45864;BME280;31579;52.354;16.974;2023-02-23T02:47:46;225.1;;;-146.1;100.0
45864;BME280;31579;52.354;16.974;2023-02-23T02:49:57;226.2;;;-146.1;100.0
45864;BME280;31579;52.354;16.974;2023-02-23T02:53:01;229.6;;;-146.1;100.0
45864;BME280;31579;52.354;16.974;2023-02-23T02:55:14;224.9;;;-146.1;100.0
45864;BME280;31579;52.354;16.974;2023-02-23T02:56:07;233.9;;;-146.1;100.0
45864;BME280;31579;52.354;16.974;2023-02-23T02:57:10;239.2;;;-146.1;100.0
45864;BME280;31579;52.354;16.974;2023-02-23T02:58:13;242.2;;;-146.1;100.0
45864;BME280;31579;52.354;16.974;2023-02-23T02:59:17;246.1;;;-146.1;100.0
45864;BME280;31579;52.354;16.974;2023-02-23T03:00:27;247.9;;;-146.1;100.0
45864;BME280;31579;52.354;16.974;2023-02-23T03:01:22;249.6;;;-146.1;100.0
45864;BME280;31579;52.354;16.974;2023-02-23T03:02:25;250.8;;;-146.1;100.0
45864;BME280;31579;52.354;16.974;2023-02-23T03:04:31;253.3;;;-146.1;100.0
45864;BME280;31579;52.354;16.974;2023-02-23T03:06:42;255.2;;;-146.1;100.0
45864;BME280;31579;52.354;16.974;2023-02-23T03:08:54;265.3;;;-146.1;100.0
45864;BME280;31579;52.354;16.974;2023-02-23T03:09:59;249.2;;;-146.1;100.0
45864;BME280;31579;52.354;16.974;2023-02-23T03:11:02;243.2;;;-146.1;100.0
45864;BME280;31579;52.354;16.974;2023-02-23T03:18:44;220.3;;;-146.1;100.0
45864;BME280;31579;52.354;16.974;2023-02-23T03:19:47;217.1;;;-146.1;100.0
45864;BME280;31579;52.354;16.974;2023-02-23T03:20:42;217.1;;;-146.1;100.0
45864;BME280;31579;52.354;16.974;2023-02-23T03:21:48;218.3;;;-146.1;100.0
45864;BME280;31579;52.354;16.974;2023-02-23T03:22:52;220.5;;;-146.1;100.0
45864;BME280;31579;52.354;16.974;2023-02-23T03:23:57;223.0;;;-146.1;100.0
45864;BME280;31579;52.354;16.974;2023-02-23T03:24:58;226.6;;;-146.1;100.0
45864;BME280;31579;52.354;16.974;2023-02-23T03:30:14;245.0;;;-146.1;100.0
45864;BME280;31579;52.354;16.974;2023-02-23T03:31:14;252.5;;;-146.1;100.0
45864;BME280;31579;52.354;16.974;2023-02-23T03:32:17;258.9;;;-146.1;100.0
45864;BME280;31579;52.354;16.974;2023-02-23T03:33:18;263.6;;;-146.1;100.0
45864;BME280;31579;52.354;16.974;2023-02-23T03:36:27;266.7;;;-146.1;100.0
45864;BME280;31579;52.354;16.974;2023-02-23T03:37:43;271.3;;;-146.1;100.0
45864;BME280;31579;52.354;16.974;2023-02-23T03:38:37;276.3;;;-146.1;100.0
45864;BME280;31579;52.354;16.974;2023-02-23T03:39:42;279.7;;;-146.1;100.0
45864;BME280;31579;52.354;16.974;2023-02-23T03:40:40;283.8;;;-146.1;100.0
45864;BME280;31579;52.354;16.974;2023-02-23T03:41:43;286.7;;;-146.1;100.0
45864;BME280;31579;52.354;16.974;2023-02-23T03:42:46;289.8;;;-146.1;100.0
45864;BME280;31579;52.354;16.974;2023-02-23T03:43:51;291.8;;;-146.1;100.0
45864;BME280;31579;52.354;16.974;2023-02-23T03:44:52;295.2;;;-146.1;100.0
45864;BME280;31579;52.354;16.974;2023-02-23T03:45:55;297.9;;;-146.1;100.0
45864;BME280;31579;52.354;16.974;2023-02-23T03:46:58;299.9;;;-146.1;100.0
45864;BME280;31579;52.354;16.974;2023-02-23T03:48:02;295.2;;;-146.1;100.0
45864;BME280;31579;52.354;16.974;2023-02-23T03:49:06;312.4;;;-146.1;100.0
45864;BME280;31579;52.354;16.974;2023-02-23T03:50:11;305.7;;;-146.1;100.0
45864;BME280;31579;52.354;16.974;2023-02-23T03:51:11;303.4;;;-146.1;100.0
45864;BME280;31579;52.354;16.974;2023-02-23T03:52:15;304.1;;;-146.1;100.0
45864;BME280;31579;52.354;16.974;2023-02-23T03:53:17;305.9;;;-146.1;100.0
45864;BME280;31579;52.354;16.974;2023-02-23T03:55:27;315.4;;;-146.1;100.0
45864;BME280;31579;52.354;16.974;2023-02-23T03:56:27;308.9;;;-146.1;100.0
45864;BME280;31579;52.354;16.974;2023-02-23T03:57:30;307.1;;;-146.1;100.0
45864;BME280;31579;52.354;16.974;2023-02-23T03:58:35;307.9;;;-146.1;100.0
45864;BME280;31579;52.354;16.974;2023-02-23T03:59:38;309.2;;;-146.1;100.0
45864;BME280;31579;52.354;16.974;2023-02-23T04:00:41;311.4;;;-146.1;100.0
45864;BME280;31579;52.354;16.974;2023-02-23T04:01:42;314.5;;;-146.1;100.0
45864;BME280;31579;52.354;16.974;2023-02-23T04:02:46;315.9;;;-146.1;100.0
45864;BME280;31579;52.354;16.974;2023-02-23T04:03:48;320.0;;;-146.1;100.0
45864;BME280;31579;52.354;16.974;2023-02-23T04:04:51;322.8;;;-146.1;100.0
45864;BME280;31579;52.354;16.974;2023-02-23T04:05:54;325.2;;;-146.1;100.0
45864;BME280;31579;52.354;16.974;2023-02-23T04:06:57;328.6;;;-146.1;100.0
45864;BME280;31579;52.354;16.974;2023-02-23T04:08:00;331.0;;;-146.1;100.0
45864;BME280;31579;52.354;16.974;2023-02-23T04:09:04;334.2;;;-146.1;100.0
45864;BME280;31579;52.354;16.974;2023-02-23T04:10:06;336.7;;;-146.1;100.0
45864;BME280;31579;52.354;16.974;2023-02-23T04:12:14;341.4;;;-146.1;100.0
45864;BME280;31579;52.354;16.974;2023-02-23T04:13:19;343.5;;;-146.1;100.0
45864;BME280;31579;52.354;16.974;2023-02-23T04:14:19;346.7;;;-146.1;100.0
45864;BME280;31579;52.354;16.974;2023-02-23T04:16:27;356.2;;;-146.1;100.0
45864;BME280;31579;52.354;16.974;2023-02-23T04:17:29;349.0;;;-146.1;100.0
45864;BME280;31579;52.354;16.974;2023-02-23T04:18:33;346.5;;;-146.1;100.0
45864;BME280;31579;52.354;16.974;2023-02-23T04:19:35;346.2;;;-146.1;100.0
45864;BME280;31579;52.354;16.974;2023-02-23T04:20:38;348.2;;;-146.1;100.0
45864;BME280;31579;52.354;16.974;2023-02-23T04:21:41;349.6;;;-146.1;100.0
45864;BME280;31579;52.354;16.974;2023-02-23T04:22:44;351.8;;;-146.1;100.0
45864;BME280;31579;52.354;16.974;2023-02-23T04:23:47;354.1;;;-146.1;100.0
45864;BME280;31579;52.354;16.974;2023-02-23T04:24:50;357.5;;;-146.1;100.0
45864;BME280;31579;52.354;16.974;2023-02-23T04:25:53;358.9;;;-146.1;100.0
45864;BME280;31579;52.354;16.974;2023-02-23T04:26:56;361.7;;;-146.1;100.0
45864;BME280;31579;52.354;16.974;2023-02-23T04:27:59;364.3;;;-146.1;100.0
45864;BME280;31579;52.354;16.974;2023-02-23T04:29:02;367.1;;;-146.1;100.0
45864;BME280;31579;52.354;16.974;2023-02-23T04:30:05;370.1;;;-146.1;100.0
45864;BME280;31579;52.354;16.974;2023-02-23T04:31:08;371.8;;;-146.1;100.0
45864;BME280;31579;52.354;16.974;2023-02-23T04:32:12;374.1;;;-146.1;100.0
45864;BME280;31579;52.354;16.974;2023-02-23T04:33:14;377.2;;;-146.1;100.0
45864;BME280;31579;52.354;16.974;2023-02-23T04:34:17;379.7;;;-146.1;100.0
45864;BME280;31579;52.354;16.974;2023-02-23T04:35:21;380.3;;;-146.1;100.0
45864;BME280;31579;52.354;16.974;2023-02-23T04:36:24;385.6;;;-146.1;100.0
45864;BME280;31579;52.354;16.974;2023-02-23T04:37:28;385.3;;;-146.1;100.0
45864;BME280;31579;52.354;16.974;2023-02-23T04:38:31;388.9;;;-146.1;100.0
45864;BME280;31579;52.354;16.974;2023-02-23T04:39:34;390.9;;;-146.1;100.0
45864;BME280;31579;52.354;16.974;2023-02-23T04:40:38;394.0;;;-146.1;100.0
45864;BME280;31579;52.354;16.974;2023-02-23T04:41:41;395.7;;;-146.1;100.0
45864;BME280;31579;52.354;16.974;2023-02-23T04:42:44;397.6;;;-146.1;100.0
45864;BME280;31579;52.354;16.974;2023-02-23T04:43:47;399.2;;;-146.1;100.0
45864;BME280;31579;52.354;16.974;2023-02-23T04:44:50;401.1;;;-146.1;100.0
45864;BME280;31579;52.354;16.974;2023-02-23T04:45:53;403.2;;;-146.1;100.0
45864;BME280;31579;52.354;16.974;2023-02-23T04:46:56;404.9;;;-146.1;100.0
45864;BME280;31579;52.354;16.974;2023-02-23T04:47:59;406.9;;;-146.1;100.0
45864;BME280;31579;52.354;16.974;2023-02-23T04:49:02;408.6;;;-146.1;100.0
45864;BME280;31579;52.354;16.974;2023-02-23T04:50:05;410.7;;;-146.1;100.0
45864;BME280;31579;52.354;16.974;2023-02-23T04:51:08;413.4;;;-146.1;100.0
45864;BME280;31579;52.354;16.974;2023-02-23T04:52:11;415.2;;;-146.1;100.0
45864;BME280;31579;52.354;16.974;2023-02-23T04:53:14;418.6;;;-146.1;100.0
45864;BME280;31579;52.354;16.974;2023-02-23T04:54:17;420.0;;;-146.1;100.0
45864;BME280;31579;52.354;16.974;2023-02-23T04:55:22;420.6;;;-146.1;100.0
45864;BME280;31579;52.354;16.974;2023-02-23T04:56:32;456.6;;;-146.1;100.0
45864;BME280;31579;52.354;16.974;2023-02-23T04:57:35;435.0;;;-146.1;100.0
45864;BME280;31579;52.354;16.974;2023-02-23T04:58:38;409.7;;;-146.1;100.0
45864;BME280;31579;52.354;16.974;2023-02-23T04:59:41;398.6;;;-146.1;100.0
45864;BME280;31579;52.354;16.974;2023-02-23T05:00:44;393.6;;;-146.1;100.0
45864;BME280;31579;52.354;16.974;2023-02-23T05:01:47;391.0;;;-146.1;100.0
45864;BME280;31579;52.354;16.974;2023-02-23T05:02:50;392.5;;;-146.1;100.0
45864;BME280;31579;52.354;16.974;2023-02-23T05:03:53;392.4;;;-146.1;100.0
45864;BME280;31579;52.354;16.974;2023-02-23T05:04:56;395.2;;;-146.1;100.0
45864;BME280;31579;52.354;16.974;2023-02-23T05:05:59;396.7;;;-146.1;100.0
45864;BME280;31579;52.354;16.974;2023-02-23T05:07:02;399.2;;;-146.1;100.0
45864;BME280;31579;52.354;16.974;2023-02-23T05:08:05;401.4;;;-146.1;100.0
45864;BME280;31579;52.354;16.974;2023-02-23T05:09:08;402.5;;;-146.1;100.0
45864;BME280;31579;52.354;16.974;2023-02-23T05:10:11;404.4;;;-146.1;100.0
45864;BME280;31579;52.354;16.974;2023-02-23T05:11:14;406.2;;;-146.1;100.0
45864;BME280;31579;52.354;16.974;2023-02-23T05:12:18;407.5;;;-146.1;100.0
45864;BME280;31579;52.354;16.974;2023-02-23T05:13:21;410.2;;;-146.1;100.0
45864;BME280;31579;52.354;16.974;2023-02-23T05:14:24;412.9;;;-146.1;100.0
45864;BME280;31579;52.354;16.974;2023-02-23T05:15:26;425.4;;;-146.1;100.0
45864;BME280;31579;52.354;16.974;2023-02-23T05:16:28;424.8;;;-146.1;100.0
45864;BME280;31579;52.354;16.974;2023-02-23T05:17:32;419.2;;;-146.1;100.0
45864;BME280;31579;52.354;16.974;2023-02-23T05:18:35;437.2;;;-146.1;100.0
45864;BME280;31579;52.354;16.974;2023-02-23T05:19:38;446.6;;;-146.1;100.0
45864;BME280;31579;52.354;16.974;2023-02-23T05:20:42;451.4;;;-146.1;100.0
45864;BME280;31579;52.354;16.974;2023-02-23T05:21:44;455.8;;;-146.1;100.0
45864;BME280;31579;52.354;16.974;2023-02-23T05:22:47;457.7;;;-146.1;100.0
45864;BME280;31579;52.354;16.974;2023-02-23T05:23:50;459.5;;;-146.1;100.0
45864;BME280;31579;52.354;16.974;2023-02-23T05:24:53;460.3;;;-146.1;100.0
45864;BME280;31579;52.354;16.974;2023-02-23T05:26:59;461.0;;;-146.1;100.0
45864;BME280;31579;52.354;16.974;2023-02-23T05:28:02;461.4;;;-146.1;100.0
45864;BME280;31579;52.354;16.974;2023-02-23T05:29:05;461.0;;;-146.1;100.0
45864;BME280;31579;52.354;16.974;2023-02-23T05:30:08;462.1;;;-146.1;100.0
45864;BME280;31579;52.354;16.974;2023-02-23T05:31:11;461.6;;;-146.1;100.0
45864;BME280;31579;52.354;16.974;2023-02-23T05:32:14;461.3;;;-146.1;100.0
45864;BME280;31579;52.354;16.974;2023-02-23T05:33:17;462.2;;;-146.1;100.0
45864;BME280;31579;52.354;16.974;2023-02-23T05:34:20;462.2;;;-146.1;100.0
45864;BME280;31579;52.354;16.974;2023-02-23T05:35:23;463.4;;;-146.1;100.0
45864;BME280;31579;52.354;16.974;2023-02-23T05:36:27;462.6;;;-146.1;100.0
45864;BME280;31579;52.354;16.974;2023-02-23T05:37:30;462.2;;;-146.1;100.0
45864;BME280;31579;52.354;16.974;2023-02-23T05:38:33;462.1;;;-146.1;100.0
45864;BME280;31579;52.354;16.974;2023-02-23T05:39:36;462.4;;;-146.1;100.0
45864;BME280;31579;52.354;16.974;2023-02-23T05:40:40;461.6;;;-146.1;100.0
45864;BME280;31579;52.354;16.974;2023-02-23T05:41:43;463.0;;;-146.1;100.0
45864;BME280;31579;52.354;16.974;2023-02-23T05:42:46;463.7;;;-146.1;100.0
45864;BME280;31579;52.354;16.974;2023-02-23T05:43:49;462.5;;;-146.1;100.0
45864;BME280;31579;52.354;16.974;2023-02-23T05:44:52;463.0;;;-146.1;100.0
45864;BME280;31579;52.354;16.974;2023-02-23T05:45:55;463.4;;;-146.1;100.0
45864;BME280;31579;52.354;16.974;2023-02-23T05:46:58;463.4;;;-146.1;100.0
45864;BME280;31579;52.354;16.974;2023-02-23T05:48:00;473.6;;;-146.1;100.0
45864;BME280;31579;52.354;16.974;2023-02-23T05:49:03;459.8;;;-146.1;100.0
45864;BME280;31579;52.354;16.974;2023-02-23T05:50:07;467.7;;;-146.1;100.0
45864;BME280;31579;52.354;16.974;2023-02-23T05:51:10;472.2;;;-146.1;100.0
45864;BME280;31579;52.354;16.974;2023-02-23T05:52:12;474.9;;;-146.1;100.0
45864;BME280;31579;52.354;16.974;2023-02-23T05:53:15;476.4;;;-146.1;100.0
45864;BME280;31579;52.354;16.974;2023-02-23T05:54:25;508.8;;;-146.1;100.0
45864;BME280;31579;52.354;16.974;2023-02-23T05:55:28;483.1;;;-146.1;100.0
45864;BME280;31579;52.354;16.974;2023-02-23T05:56:31;456.9;;;-146.1;100.0
45864;BME280;31579;52.354;16.974;2023-02-23T05:57:34;443.5;;;-146.1;100.0
45864;BME280;31579;52.354;16.974;2023-02-23T05:58:37;437.6;;;-146.1;100.0
45864;BME280;31579;52.354;16.974;2023-02-23T05:59:40;434.7;;;-146.1;100.0
45864;BME280;31579;52.354;16.974;2023-02-23T06:00:43;434.2;;;-146.1;100.0
45864;BME280;31579;52.354;16.974;2023-02-23T06:01:46;433.1;;;-146.1;100.0
45864;BME280;31579;52.354;16.974;2023-02-23T06:02:49;433.7;;;-146.1;100.0
45864;BME280;31579;52.354;16.974;2023-02-23T06:03:52;434.3;;;-146.1;100.0
45864;BME280;31579;52.354;16.974;2023-02-23T06:04:55;435.1;;;-146.1;100.0
45864;BME280;31579;52.354;16.974;2023-02-23T06:05:58;436.2;;;-146.1;100.0
45864;BME280;31579;52.354;16.974;2023-02-23T06:07:06;455.7;;;-146.1;100.0
45864;BME280;31579;52.354;16.974;2023-02-23T06:08:09;446.0;;;-146.1;100.0
45864;BME280;31579;52.354;16.974;2023-02-23T06:09:12;428.7;;;-146.1;100.0
45864;BME280;31579;52.354;16.974;2023-02-23T06:10:15;421.2;;;-146.1;100.0
45864;BME280;31579;52.354;16.974;2023-02-23T06:11:18;420.1;;;-146.1;100.0
45864;BME280;31579;52.354;16.974;2023-02-23T06:12:21;420.3;;;-146.1;100.0
45864;BME280;31579;52.354;16.974;2023-02-23T06:13:24;421.1;;;-146.1;100.0
45864;BME280;31579;52.354;16.974;2023-02-23T06:14:27;422.9;;;-146.1;100.0
45864;BME280;31579;52.354;16.974;2023-02-23T06:15:30;425.4;;;-146.1;100.0
45864;BME280;31579;52.354;16.974;2023-02-23T06:16:33;427.5;;;-146.1;100.0
45864;BME280;31579;52.354;16.974;2023-02-23T06:17:36;430.1;;;-146.1;100.0
45864;BME280;31579;52.354;16.974;2023-02-23T06:18:39;432.6;;;-146.1;100.0
45864;BME280;31579;52.354;16.974;2023-02-23T06:19:43;434.7;;;-146.1;100.0
45864;BME280;31579;52.354;16.974;2023-02-23T06:20:46;438.1;;;-146.1;100.0
45864;BME280;31579;52.354;16.974;2023-02-23T06:21:50;441.4;;;-146.1;100.0
45864;BME280;31579;52.354;16.974;2023-02-23T06:22:53;445.3;;;-146.1;100.0
45864;BME280;31579;52.354;16.974;2023-02-23T06:23:56;448.4;;;-146.1;100.0
45864;BME280;31579;52.354;16.974;2023-02-23T06:24:59;452.0;;;-146.1;100.0
45864;BME280;31579;52.354;16.974;2023-02-23T06:26:02;455.7;;;-146.1;100.0
45864;BME280;31579;52.354;16.974;2023-02-23T06:27:05;458.4;;;-146.1;100.0
45864;BME280;31579;52.354;16.974;2023-02-23T06:28:08;461.0;;;-146.1;100.0
45864;BME280;31579;52.354;16.974;2023-02-23T06:29:12;464.4;;;-146.1;100.0
45864;BME280;31579;52.354;16.974;2023-02-23T06:30:16;468.2;;;-146.1;100.0
45864;BME280;31579;52.354;16.974;2023-02-23T06:31:19;471.4;;;-146.1;100.0
45864;BME280;31579;52.354;16.974;2023-02-23T06:32:22;476.4;;;-146.1;100.0
45864;BME280;31579;52.354;16.974;2023-02-23T06:33:25;479.9;;;-146.1;100.0
45864;BME280;31579;52.354;16.974;2023-02-23T06:34:28;483.9;;;-146.1;100.0
45864;BME280;31579;52.354;16.974;2023-02-23T06:35:33;487.4;;;-146.1;100.0
45864;BME280;31579;52.354;16.974;2023-02-23T06:36:35;493.4;;;-146.1;100.0